sensor_id;sensor_type;location;lat;lon;timestamp;P1;durP1;ratioP1;P2;durP2;ratioP2
10705;SDS011;5404;42.656;23.336;2023-03-23T00:02:02;166.45;;;54.28;;
10705;SDS011;5404;42.656;23.336;2023-03-23T00:04:27;132.02;;;53.25;;
10705;SDS011;5404;42.656;23.336;2023-03-23T00:06:54;122.75;;;50.47;;
10705;SDS011;5404;42.656;23.336;2023-03-23T00:09:19;127.63;;;52.88;;
10705;SDS011;5404;42.656;23.336;2023-03-23T00:11:49;121.13;;;50.45;;
10705;SDS011;5404;42.656;23.336;2023-03-23T00:14:15;120.30;;;51.67;;
10705;SDS011;5404;42.656;23.336;2023-03-23T00:16:41;130.93;;;55.70;;
10705;SDS011;5404;42.656;23.336;2023-03-23T00:19:09;134.35;;;55.40;;
10705;SDS011;5404;42.656;23.336;2023-03-23T00:21:39;127.32;;;51.17;;
10705;SDS011;5404;42.656;23.336;2023-03-23T00:24:07;118.15;;;52.53;;
10705;SDS011;5404;42.656;23.336;2023-03-23T00:26:46;148.57;;;61.50;;
10705;SDS011;5404;42.656;23.336;2023-03-23T00:29:20;146.70;;;59.03;;
10705;SDS011;5404;42.656;23.336;2023-03-23T00:31:47;108.72;;;48.25;;
10705;SDS011;5404;42.656;23.336;2023-03-23T00:34:20;147.20;;;57.33;;
10705;SDS011;5404;42.656;23.336;2023-03-23T00:36:47;127.07;;;53.65;;
10705;SDS011;5404;42.656;23.336;2023-03-23T00:39:24;139.75;;;56.17;;
10705;SDS011;5404;42.656;23.336;2023-03-23T00:41:51;131.80;;;56.42;;
10705;SDS011;5404;42.656;23.336;2023-03-23T00:44:18;116.57;;;49.65;;
10705;SDS011;5404;42.656;23.336;2023-03-23T00:46:47;101.85;;;47.03;;
10705;SDS011;5404;42.656;23.336;2023-03-23T00:49:15;109.60;;;45.72;;
10705;SDS011;5404;42.656;23.336;2023-03-23T00:51:42;101.78;;;45.47;;
10705;SDS011;5404;42.656;23.336;2023-03-23T00:54:08;107.45;;;45.25;;
10705;SDS011;5404;42.656;23.336;2023-03-23T00:56:34;129.38;;;53.33;;
10705;SDS011;5404;42.656;23.336;2023-03-23T00:59:01;127.90;;;53.50;;
10705;SDS011;5404;42.656;23.336;2023-03-23T01:01:26;96.32;;;45.20;;
10705;SDS011;5404;42.656;23.336;2023-03-23T01:03:52;91.78;;;40.92;;
10705;SDS011;5404;42.656;23.336;2023-03-23T01:06:28;100.03;;;45.35;;
10705;SDS011;5404;42.656;23.336;2023-03-23T01:08:56;122.50;;;52.53;;
10705;SDS011;5404;42.656;23.336;2023-03-23T01:11:22;116.68;;;51.50;;
10705;SDS011;5404;42.656;23.336;2023-03-23T01:13:49;118.22;;;48.63;;
10705;SDS011;5404;42.656;23.336;2023-03-23T01:16:14;102.30;;;48.10;;
10705;SDS011;5404;42.656;23.336;2023-03-23T01:18:40;103.82;;;46.40;;
10705;SDS011;5404;42.656;23.336;2023-03-23T01:21:08;99.80;;;45.42;;
10705;SDS011;5404;42.656;23.336;2023-03-23T01:23:37;100.13;;;45.33;;
10705;SDS011;5404;42.656;23.336;2023-03-23T01:26:13;106.03;;;48.33;;
10705;SDS011;5404;42.656;23.336;2023-03-23T01:28:41;104.40;;;46.88;;
10705;SDS011;5404;42.656;23.336;2023-03-23T01:31:07;91.90;;;44.08;;
10705;SDS011;5404;42.656;23.336;2023-03-23T01:33:37;75.43;;;36.17;;
10705;SDS011;5404;42.656;23.336;2023-03-23T01:36:04;84.72;;;38.92;;
10705;SDS011;5404;42.656;23.336;2023-03-23T01:38:32;81.97;;;38.03;;
10705;SDS011;5404;42.656;23.336;2023-03-23T01:40:58;68.35;;;32.58;;
10705;SDS011;5404;42.656;23.336;2023-03-23T01:43:26;74.43;;;32.42;;
10705;SDS011;5404;42.656;23.336;2023-03-23T01:45:51;64.05;;;33.88;;
10705;SDS011;5404;42.656;23.336;2023-03-23T01:48:24;63.95;;;31.45;;
10705;SDS011;5404;42.656;23.336;2023-03-23T01:51:03;60.95;;;29.95;;
10705;SDS011;5404;42.656;23.336;2023-03-23T01:53:37;53.20;;;28.90;;
10705;SDS011;5404;42.656;23.336;2023-03-23T01:56:06;51.67;;;26.75;;
10705;SDS011;5404;42.656;23.336;2023-03-23T01:58:36;57.58;;;28.98;;
10705;SDS011;5404;42.656;23.336;2023-03-23T02:01:09;50.25;;;26.25;;
10705;SDS011;5404;42.656;23.336;2023-03-23T02:03:39;52.58;;;26.40;;
10705;SDS011;5404;42.656;23.336;2023-03-23T02:06:07;53.78;;;27.40;;
10705;SDS011;5404;42.656;23.336;2023-03-23T02:08:33;55.28;;;26.23;;
10705;SDS011;5404;42.656;23.336;2023-03-23T02:11:00;52.63;;;26.23;;
10705;SDS011;5404;42.656;23.336;2023-03-23T02:13:26;53.95;;;28.05;;
10705;SDS011;5404;42.656;23.336;2023-03-23T02:19:07;48.65;;;25.65;;
10705;SDS011;5404;42.656;23.336;2023-03-23T02:24:52;47.83;;;26.73;;
10705;SDS011;5404;42.656;23.336;2023-03-23T02:38:10;51.25;;;26.35;;
10705;SDS011;5404;42.656;23.336;2023-03-23T02:40:45;53.63;;;28.17;;
10705;SDS011;5404;42.656;23.336;2023-03-23T02:43:15;50.53;;;27.95;;
10705;SDS011;5404;42.656;23.336;2023-03-23T02:45:44;49.75;;;26.92;;
10705;SDS011;5404;42.656;23.336;2023-03-23T02:48:12;47.57;;;27.37;;
10705;SDS011;5404;42.656;23.336;2023-03-23T02:50:40;48.92;;;25.85;;
10705;SDS011;5404;42.656;23.336;2023-03-23T02:53:11;50.33;;;26.48;;
10705;SDS011;5404;42.656;23.336;2023-03-23T02:58:07;50.00;;;26.30;;
10705;SDS011;5404;42.656;23.336;2023-03-23T03:00:34;58.30;;;27.20;;
10705;SDS011;5404;42.656;23.336;2023-03-23T03:03:00;57.95;;;29.73;;
10705;SDS011;5404;42.656;23.336;2023-03-23T03:11:01;75.18;;;35.97;;
10705;SDS011;5404;42.656;23.336;2023-03-23T03:18:51;83.68;;;39.97;;
10705;SDS011;5404;42.656;23.336;2023-03-23T03:21:22;95.70;;;43.42;;
10705;SDS011;5404;42.656;23.336;2023-03-23T03:26:17;104.70;;;44.30;;
10705;SDS011;5404;42.656;23.336;2023-03-23T03:28:46;97.10;;;43.85;;
10705;SDS011;5404;42.656;23.336;2023-03-23T03:31:16;118.55;;;48.35;;
10705;SDS011;5404;42.656;23.336;2023-03-23T03:33:44;109.15;;;48.55;;
10705;SDS011;5404;42.656;23.336;2023-03-23T03:36:14;145.95;;;53.08;;
10705;SDS011;5404;42.656;23.336;2023-03-23T03:38:46;120.03;;;51.30;;
10705;SDS011;5404;42.656;23.336;2023-03-23T03:41:15;156.73;;;53.55;;
10705;SDS011;5404;42.656;23.336;2023-03-23T03:43:43;138.93;;;51.15;;
10705;SDS011;5404;42.656;23.336;2023-03-23T03:46:08;139.70;;;52.17;;
10705;SDS011;5404;42.656;23.336;2023-03-23T03:48:34;158.18;;;54.10;;
10705;SDS011;5404;42.656;23.336;2023-03-23T03:51:01;130.57;;;48.65;;
10705;SDS011;5404;42.656;23.336;2023-03-23T03:53:27;144.23;;;53.40;;
10705;SDS011;5404;42.656;23.336;2023-03-23T03:55:53;155.98;;;55.20;;
10705;SDS011;5404;42.656;23.336;2023-03-23T03:58:25;132.77;;;51.63;;
10705;SDS011;5404;42.656;23.336;2023-03-23T04:00:59;122.82;;;51.42;;
10705;SDS011;5404;42.656;23.336;2023-03-23T04:05:51;117.18;;;50.50;;
10705;SDS011;5404;42.656;23.336;2023-03-23T04:08:17;115.93;;;48.65;;
10705;SDS011;5404;42.656;23.336;2023-03-23T04:10:43;142.07;;;56.70;;
10705;SDS011;5404;42.656;23.336;2023-03-23T04:13:09;125.35;;;49.92;;
10705;SDS011;5404;42.656;23.336;2023-03-23T04:15:35;129.23;;;50.92;;
10705;SDS011;5404;42.656;23.336;2023-03-23T04:18:00;112.75;;;47.53;;
10705;SDS011;5404;42.656;23.336;2023-03-23T04:20:26;115.03;;;49.65;;
10705;SDS011;5404;42.656;23.336;2023-03-23T04:22:53;127.18;;;50.83;;
10705;SDS011;5404;42.656;23.336;2023-03-23T04:25:20;117.00;;;49.83;;
10705;SDS011;5404;42.656;23.336;2023-03-23T04:27:48;105.05;;;48.63;;
10705;SDS011;5404;42.656;23.336;2023-03-23T04:30:18;111.65;;;47.08;;
10705;SDS011;5404;42.656;23.336;2023-03-23T04:32:48;110.18;;;48.03;;
10705;SDS011;5404;42.656;23.336;2023-03-23T04:35:16;122.47;;;52.80;;
10705;SDS011;5404;42.656;23.336;2023-03-23T04:37:42;122.57;;;54.28;;
10705;SDS011;5404;42.656;23.336;2023-03-23T04:40:08;126.93;;;53.45;;
10705;SDS011;5404;42.656;23.336;2023-03-23T04:42:39;112.05;;;48.60;;
10705;SDS011;5404;42.656;23.336;2023-03-23T04:45:07;119.93;;;49.35;;
10705;SDS011;5404;42.656;23.336;2023-03-23T04:47:33;115.30;;;50.85;;
10705;SDS011;5404;42.656;23.336;2023-03-23T04:50:08;101.18;;;45.67;;
10705;SDS011;5404;42.656;23.336;2023-03-23T04:52:35;104.00;;;47.38;;
10705;SDS011;5404;42.656;23.336;2023-03-23T04:55:03;110.82;;;49.85;;
10705;SDS011;5404;42.656;23.336;2023-03-23T04:57:30;109.15;;;47.20;;
10705;SDS011;5404;42.656;23.336;2023-03-23T04:59:56;107.35;;;46.05;;
10705;SDS011;5404;42.656;23.336;2023-03-23T05:02:22;99.28;;;44.50;;
10705;SDS011;5404;42.656;23.336;2023-03-23T05:04:48;102.00;;;44.00;;
10705;SDS011;5404;42.656;23.336;2023-03-23T05:07:14;97.60;;;44.47;;
10705;SDS011;5404;42.656;23.336;2023-03-23T05:09:40;96.70;;;42.28;;
10705;SDS011;5404;42.656;23.336;2023-03-23T05:12:05;91.30;;;43.50;;
10705;SDS011;5404;42.656;23.336;2023-03-23T05:14:32;97.70;;;41.67;;
10705;SDS011;5404;42.656;23.336;2023-03-23T05:16:57;88.25;;;40.38;;
10705;SDS011;5404;42.656;23.336;2023-03-23T05:19:23;91.28;;;39.97;;
10705;SDS011;5404;42.656;23.336;2023-03-23T05:21:48;83.43;;;35.78;;
10705;SDS011;5404;42.656;23.336;2023-03-23T05:24:13;85.15;;;39.10;;
10705;SDS011;5404;42.656;23.336;2023-03-23T05:26:40;69.30;;;34.88;;
10705;SDS011;5404;42.656;23.336;2023-03-23T05:29:05;69.05;;;35.08;;
10705;SDS011;5404;42.656;23.336;2023-03-23T05:31:31;70.53;;;32.42;;
10705;SDS011;5404;42.656;23.336;2023-03-23T05:33:57;61.70;;;31.75;;
10705;SDS011;5404;42.656;23.336;2023-03-23T05:36:22;74.07;;;35.25;;
10705;SDS011;5404;42.656;23.336;2023-03-23T05:38:48;54.95;;;29.40;;
10705;SDS011;5404;42.656;23.336;2023-03-23T05:41:15;55.13;;;29.65;;
10705;SDS011;5404;42.656;23.336;2023-03-23T05:43:41;51.95;;;28.08;;
10705;SDS011;5404;42.656;23.336;2023-03-23T05:46:07;60.47;;;29.40;;
10705;SDS011;5404;42.656;23.336;2023-03-23T05:48:36;55.83;;;29.67;;
10705;SDS011;5404;42.656;23.336;2023-03-23T05:51:03;55.78;;;28.13;;
10705;SDS011;5404;42.656;23.336;2023-03-23T05:53:29;50.50;;;28.95;;
10705;SDS011;5404;42.656;23.336;2023-03-23T05:56:01;55.80;;;28.08;;
10705;SDS011;5404;42.656;23.336;2023-03-23T05:58:28;64.45;;;29.25;;
10705;SDS011;5404;42.656;23.336;2023-03-23T06:00:54;53.90;;;27.52;;
10705;SDS011;5404;42.656;23.336;2023-03-23T06:03:20;50.35;;;26.92;;
10705;SDS011;5404;42.656;23.336;2023-03-23T06:05:46;49.78;;;25.38;;
10705;SDS011;5404;42.656;23.336;2023-03-23T06:08:11;53.50;;;27.63;;
10705;SDS011;5404;42.656;23.336;2023-03-23T06:10:37;49.10;;;26.65;;
10705;SDS011;5404;42.656;23.336;2023-03-23T06:13:03;53.50;;;28.30;;
10705;SDS011;5404;42.656;23.336;2023-03-23T06:15:30;56.60;;;27.38;;
10705;SDS011;5404;42.656;23.336;2023-03-23T06:18:01;43.88;;;25.88;;
10705;SDS011;5404;42.656;23.336;2023-03-23T06:20:27;49.38;;;26.20;;
10705;SDS011;5404;42.656;23.336;2023-03-23T06:22:54;50.90;;;26.65;;
10705;SDS011;5404;42.656;23.336;2023-03-23T06:25:19;55.63;;;26.17;;
10705;SDS011;5404;42.656;23.336;2023-03-23T06:27:45;55.33;;;27.98;;
10705;SDS011;5404;42.656;23.336;2023-03-23T06:30:11;47.60;;;27.17;;
10705;SDS011;5404;42.656;23.336;2023-03-23T06:32:39;167.10;;;93.03;;
10705;SDS011;5404;42.656;23.336;2023-03-23T06:35:07;58.28;;;32.58;;
10705;SDS011;5404;42.656;23.336;2023-03-23T06:37:35;57.88;;;29.23;;
10705;SDS011;5404;42.656;23.336;2023-03-23T06:40:01;50.47;;;26.42;;
10705;SDS011;5404;42.656;23.336;2023-03-23T06:42:30;54.17;;;26.92;;
10705;SDS011;5404;42.656;23.336;2023-03-23T06:44:55;48.63;;;27.25;;
10705;SDS011;5404;42.656;23.336;2023-03-23T06:47:22;53.35;;;27.88;;
10705;SDS011;5404;42.656;23.336;2023-03-23T06:49:48;50.10;;;28.08;;
10705;SDS011;5404;42.656;23.336;2023-03-23T06:52:14;57.53;;;29.65;;
10705;SDS011;5404;42.656;23.336;2023-03-23T06:54:40;54.67;;;30.00;;
10705;SDS011;5404;42.656;23.336;2023-03-23T06:57:05;51.70;;;29.42;;
10705;SDS011;5404;42.656;23.336;2023-03-23T06:59:31;53.70;;;29.25;;
10705;SDS011;5404;42.656;23.336;2023-03-23T07:01:56;57.30;;;29.95;;
10705;SDS011;5404;42.656;23.336;2023-03-23T07:04:23;67.45;;;29.02;;
10705;SDS011;5404;42.656;23.336;2023-03-23T07:06:48;50.20;;;26.20;;
10705;SDS011;5404;42.656;23.336;2023-03-23T07:09:14;59.17;;;27.00;;
10705;SDS011;5404;42.656;23.336;2023-03-23T07:11:40;56.30;;;28.67;;
10705;SDS011;5404;42.656;23.336;2023-03-23T07:14:06;57.10;;;28.45;;
10705;SDS011;5404;42.656;23.336;2023-03-23T07:16:32;54.75;;;27.98;;
10705;SDS011;5404;42.656;23.336;2023-03-23T07:18:58;67.30;;;29.98;;
10705;SDS011;5404;42.656;23.336;2023-03-23T07:21:24;59.85;;;25.67;;
10705;SDS011;5404;42.656;23.336;2023-03-23T07:23:49;47.10;;;25.08;;
10705;SDS011;5404;42.656;23.336;2023-03-23T07:26:15;61.17;;;26.10;;
10705;SDS011;5404;42.656;23.336;2023-03-23T07:28:41;44.55;;;24.88;;
10705;SDS011;5404;42.656;23.336;2023-03-23T07:31:07;41.03;;;22.75;;
10705;SDS011;5404;42.656;23.336;2023-03-23T07:33:34;55.22;;;24.52;;
10705;SDS011;5404;42.656;23.336;2023-03-23T07:36:00;61.67;;;26.90;;
10705;SDS011;5404;42.656;23.336;2023-03-23T07:38:27;48.03;;;25.73;;
10705;SDS011;5404;42.656;23.336;2023-03-23T07:40:53;52.85;;;27.08;;
10705;SDS011;5404;42.656;23.336;2023-03-23T07:43:19;49.17;;;25.70;;
10705;SDS011;5404;42.656;23.336;2023-03-23T07:45:46;58.03;;;24.33;;
10705;SDS011;5404;42.656;23.336;2023-03-23T07:48:11;48.08;;;23.50;;
10705;SDS011;5404;42.656;23.336;2023-03-23T07:50:37;41.25;;;23.38;;
10705;SDS011;5404;42.656;23.336;2023-03-23T07:53:03;44.65;;;24.92;;
10705;SDS011;5404;42.656;23.336;2023-03-23T07:55:28;50.97;;;25.05;;
10705;SDS011;5404;42.656;23.336;2023-03-23T07:57:54;59.10;;;23.73;;
10705;SDS011;5404;42.656;23.336;2023-03-23T08:00:21;50.35;;;23.15;;
10705;SDS011;5404;42.656;23.336;2023-03-23T08:02:50;56.92;;;25.52;;
10705;SDS011;5404;42.656;23.336;2023-03-23T08:05:17;48.10;;;23.20;;
10705;SDS011;5404;42.656;23.336;2023-03-23T08:07:44;39.17;;;22.30;;
10705;SDS011;5404;42.656;23.336;2023-03-23T08:10:10;56.08;;;23.50;;
10705;SDS011;5404;42.656;23.336;2023-03-23T08:12:37;44.22;;;23.35;;
10705;SDS011;5404;42.656;23.336;2023-03-23T08:15:07;36.00;;;20.30;;
10705;SDS011;5404;42.656;23.336;2023-03-23T08:17:42;41.78;;;21.88;;
10705;SDS011;5404;42.656;23.336;2023-03-23T08:20:08;44.85;;;22.05;;
10705;SDS011;5404;42.656;23.336;2023-03-23T08:22:39;38.28;;;22.70;;
10705;SDS011;5404;42.656;23.336;2023-03-23T08:25:06;45.17;;;23.23;;
10705;SDS011;5404;42.656;23.336;2023-03-23T08:27:33;49.92;;;23.23;;
10705;SDS011;5404;42.656;23.336;2023-03-23T08:29:59;49.88;;;23.45;;
10705;SDS011;5404;42.656;23.336;2023-03-23T08:32:24;50.63;;;22.85;;
10705;SDS011;5404;42.656;23.336;2023-03-23T08:34:51;34.72;;;19.02;;
10705;SDS011;5404;42.656;23.336;2023-03-23T08:37:17;52.83;;;19.13;;
10705;SDS011;5404;42.656;23.336;2023-03-23T08:39:42;34.60;;;18.42;;
10705;SDS011;5404;42.656;23.336;2023-03-23T08:42:09;33.72;;;19.13;;
10705;SDS011;5404;42.656;23.336;2023-03-23T08:44:35;32.25;;;16.98;;
10705;SDS011;5404;42.656;23.336;2023-03-23T08:47:01;19.20;;;12.00;;
10705;SDS011;5404;42.656;23.336;2023-03-23T08:49:28;34.60;;;14.43;;
10705;SDS011;5404;42.656;23.336;2023-03-23T08:51:56;22.00;;;10.65;;
10705;SDS011;5404;42.656;23.336;2023-03-23T08:54:21;18.20;;;9.93;;
10705;SDS011;5404;42.656;23.336;2023-03-23T08:56:46;19.48;;;10.40;;
10705;SDS011;5404;42.656;23.336;2023-03-23T08:59:12;19.63;;;9.88;;
10705;SDS011;5404;42.656;23.336;2023-03-23T09:01:37;19.38;;;11.07;;
10705;SDS011;5404;42.656;23.336;2023-03-23T09:04:03;12.38;;;8.50;;
10705;SDS011;5404;42.656;23.336;2023-03-23T09:06:29;17.13;;;8.77;;
10705;SDS011;5404;42.656;23.336;2023-03-23T09:08:56;15.88;;;8.93;;
10705;SDS011;5404;42.656;23.336;2023-03-23T09:11:21;16.52;;;10.07;;
10705;SDS011;5404;42.656;23.336;2023-03-23T09:13:47;20.40;;;11.00;;
10705;SDS011;5404;42.656;23.336;2023-03-23T09:16:14;18.83;;;10.48;;
10705;SDS011;5404;42.656;23.336;2023-03-23T09:18:39;53.58;;;27.00;;
10705;SDS011;5404;42.656;23.336;2023-03-23T09:21:05;31.67;;;16.77;;
10705;SDS011;5404;42.656;23.336;2023-03-23T09:23:31;18.42;;;10.43;;
10705;SDS011;5404;42.656;23.336;2023-03-23T09:25:58;16.70;;;10.27;;
10705;SDS011;5404;42.656;23.336;2023-03-23T09:28:25;17.40;;;10.70;;
10705;SDS011;5404;42.656;23.336;2023-03-23T09:30:51;17.55;;;9.63;;
10705;SDS011;5404;42.656;23.336;2023-03-23T09:33:17;14.15;;;8.93;;
10705;SDS011;5404;42.656;23.336;2023-03-23T09:35:42;19.50;;;8.77;;
10705;SDS011;5404;42.656;23.336;2023-03-23T09:38:09;13.70;;;9.15;;
10705;SDS011;5404;42.656;23.336;2023-03-23T09:40:47;15.48;;;9.05;;
10705;SDS011;5404;42.656;23.336;2023-03-23T09:43:25;13.20;;;8.93;;
10705;SDS011;5404;42.656;23.336;2023-03-23T09:48:27;17.52;;;9.43;;
10705;SDS011;5404;42.656;23.336;2023-03-23T09:54:14;15.48;;;9.20;;
10705;SDS011;5404;42.656;23.336;2023-03-23T09:56:46;14.88;;;9.27;;
10705;SDS011;5404;42.656;23.336;2023-03-23T09:59:19;16.65;;;10.75;;
10705;SDS011;5404;42.656;23.336;2023-03-23T10:01:49;21.48;;;11.45;;
10705;SDS011;5404;42.656;23.336;2023-03-23T10:07:14;15.32;;;9.80;;
10705;SDS011;5404;42.656;23.336;2023-03-23T10:09:43;23.42;;;10.52;;
10705;SDS011;5404;42.656;23.336;2023-03-23T10:17:54;27.35;;;18.73;;
10705;SDS011;5404;42.656;23.336;2023-03-23T10:20:32;14.10;;;9.50;;
10705;SDS011;5404;42.656;23.336;2023-03-23T10:23:14;20.27;;;9.02;;
10705;SDS011;5404;42.656;23.336;2023-03-23T10:29:17;12.43;;;8.00;;
10705;SDS011;5404;42.656;23.336;2023-03-23T10:31:49;12.52;;;8.23;;
10705;SDS011;5404;42.656;23.336;2023-03-23T10:34:28;15.38;;;8.57;;
10705;SDS011;5404;42.656;23.336;2023-03-23T10:39:54;15.57;;;9.07;;
10705;SDS011;5404;42.656;23.336;2023-03-23T10:42:34;16.65;;;7.97;;
10705;SDS011;5404;42.656;23.336;2023-03-23T10:47:38;12.52;;;8.25;;
10705;SDS011;5404;42.656;23.336;2023-03-23T10:50:12;12.52;;;7.68;;
10705;SDS011;5404;42.656;23.336;2023-03-23T10:52:42;16.98;;;9.30;;
10705;SDS011;5404;42.656;23.336;2023-03-23T10:55:10;11.98;;;8.48;;
10705;SDS011;5404;42.656;23.336;2023-03-23T10:57:38;16.38;;;7.53;;
10705;SDS011;5404;42.656;23.336;2023-03-23T11:02:36;13.88;;;8.32;;
10705;SDS011;5404;42.656;23.336;2023-03-23T11:05:16;13.20;;;7.85;;
10705;SDS011;5404;42.656;23.336;2023-03-23T11:07:57;12.75;;;8.27;;
10705;SDS011;5404;42.656;23.336;2023-03-23T11:10:34;15.45;;;9.30;;
10705;SDS011;5404;42.656;23.336;2023-03-23T11:13:01;16.80;;;8.30;;
10705;SDS011;5404;42.656;23.336;2023-03-23T11:15:30;11.82;;;7.78;;
10705;SDS011;5404;42.656;23.336;2023-03-23T11:18:00;13.10;;;7.57;;
10705;SDS011;5404;42.656;23.336;2023-03-23T11:20:33;10.00;;;7.97;;
10705;SDS011;5404;42.656;23.336;2023-03-23T11:23:07;12.07;;;8.02;;
10705;SDS011;5404;42.656;23.336;2023-03-23T11:26:08;17.83;;;8.45;;
10705;SDS011;5404;42.656;23.336;2023-03-23T11:28:35;11.98;;;7.90;;
10705;SDS011;5404;42.656;23.336;2023-03-23T11:31:17;12.73;;;7.28;;
10705;SDS011;5404;42.656;23.336;2023-03-23T11:33:57;13.00;;;7.32;;
10705;SDS011;5404;42.656;23.336;2023-03-23T11:36:39;10.52;;;7.68;;
10705;SDS011;5404;42.656;23.336;2023-03-23T11:39:29;11.60;;;8.07;;
10705;SDS011;5404;42.656;23.336;2023-03-23T11:41:54;9.82;;;7.40;;
10705;SDS011;5404;42.656;23.336;2023-03-23T11:44:22;10.05;;;6.93;;
10705;SDS011;5404;42.656;23.336;2023-03-23T11:50:03;16.30;;;8.00;;
10705;SDS011;5404;42.656;23.336;2023-03-23T11:55:25;13.70;;;7.47;;
10705;SDS011;5404;42.656;23.336;2023-03-23T11:57:55;17.25;;;7.40;;
10705;SDS011;5404;42.656;23.336;2023-03-23T12:00:25;13.00;;;7.00;;
10705;SDS011;5404;42.656;23.336;2023-03-23T12:06:03;13.07;;;8.00;;
10705;SDS011;5404;42.656;23.336;2023-03-23T12:14:41;12.13;;;8.47;;
10705;SDS011;5404;42.656;23.336;2023-03-23T12:17:34;13.15;;;8.07;;
10705;SDS011;5404;42.656;23.336;2023-03-23T12:34:29;14.27;;;7.25;;
10705;SDS011;5404;42.656;23.336;2023-03-23T12:36:34;13.75;;;8.02;;
10705;SDS011;5404;42.656;23.336;2023-03-23T12:42:04;10.95;;;7.22;;
10705;SDS011;5404;42.656;23.336;2023-03-23T12:44:35;12.00;;;7.88;;
10705;SDS011;5404;42.656;23.336;2023-03-23T12:47:34;18.48;;;8.38;;
10705;SDS011;5404;42.656;23.336;2023-03-23T12:50:26;10.45;;;6.97;;
10705;SDS011;5404;42.656;23.336;2023-03-23T12:53:06;14.38;;;6.88;;
10705;SDS011;5404;42.656;23.336;2023-03-23T13:01:10;14.05;;;6.90;;
10705;SDS011;5404;42.656;23.336;2023-03-23T13:09:01;11.75;;;7.03;;
10705;SDS011;5404;42.656;23.336;2023-03-23T13:11:32;12.52;;;6.97;;
10705;SDS011;5404;42.656;23.336;2023-03-23T13:25:35;12.25;;;6.40;;
10705;SDS011;5404;42.656;23.336;2023-03-23T13:28:03;8.75;;;6.15;;
10705;SDS011;5404;42.656;23.336;2023-03-23T13:30:29;10.93;;;6.90;;
10705;SDS011;5404;42.656;23.336;2023-03-23T13:33:05;8.65;;;5.85;;
10705;SDS011;5404;42.656;23.336;2023-03-23T13:35:36;25.05;;;6.70;;
10705;SDS011;5404;42.656;23.336;2023-03-23T13:38:11;12.73;;;6.93;;
10705;SDS011;5404;42.656;23.336;2023-03-23T13:40:57;11.00;;;7.47;;
10705;SDS011;5404;42.656;23.336;2023-03-23T13:43:32;8.63;;;5.70;;
10705;SDS011;5404;42.656;23.336;2023-03-23T13:46:22;10.13;;;7.22;;
10705;SDS011;5404;42.656;23.336;2023-03-23T13:56:58;7.57;;;5.85;;
10705;SDS011;5404;42.656;23.336;2023-03-23T14:01:55;13.82;;;6.15;;
10705;SDS011;5404;42.656;23.336;2023-03-23T14:04:41;10.88;;;6.18;;
10705;SDS011;5404;42.656;23.336;2023-03-23T14:07:11;11.77;;;6.60;;
10705;SDS011;5404;42.656;23.336;2023-03-23T14:09:38;8.00;;;6.13;;
10705;SDS011;5404;42.656;23.336;2023-03-23T14:14:56;9.13;;;5.65;;
10705;SDS011;5404;42.656;23.336;2023-03-23T14:17:29;12.27;;;7.07;;
10705;SDS011;5404;42.656;23.336;2023-03-23T14:19:58;12.10;;;6.53;;
10705;SDS011;5404;42.656;23.336;2023-03-23T14:22:27;15.90;;;7.40;;
10705;SDS011;5404;42.656;23.336;2023-03-23T14:25:02;12.57;;;6.55;;
10705;SDS011;5404;42.656;23.336;2023-03-23T14:27:35;13.82;;;6.53;;
10705;SDS011;5404;42.656;23.336;2023-03-23T14:30:02;12.90;;;7.22;;
10705;SDS011;5404;42.656;23.336;2023-03-23T14:32:31;11.82;;;7.00;;
10705;SDS011;5404;42.656;23.336;2023-03-23T14:34:58;11.63;;;7.20;;
10705;SDS011;5404;42.656;23.336;2023-03-23T14:37:30;9.93;;;7.05;;
10705;SDS011;5404;42.656;23.336;2023-03-23T14:39:57;16.02;;;7.18;;
10705;SDS011;5404;42.656;23.336;2023-03-23T14:42:30;9.40;;;6.82;;
10705;SDS011;5404;42.656;23.336;2023-03-23T14:44:59;18.23;;;7.75;;
10705;SDS011;5404;42.656;23.336;2023-03-23T14:47:27;11.10;;;6.03;;
10705;SDS011;5404;42.656;23.336;2023-03-23T14:50:00;11.80;;;7.00;;
10705;SDS011;5404;42.656;23.336;2023-03-23T14:52:29;13.05;;;6.57;;
10705;SDS011;5404;42.656;23.336;2023-03-23T14:55:12;15.10;;;6.90;;
10705;SDS011;5404;42.656;23.336;2023-03-23T14:57:40;9.07;;;6.68;;
10705;SDS011;5404;42.656;23.336;2023-03-23T15:00:14;12.63;;;7.75;;
10705;SDS011;5404;42.656;23.336;2023-03-23T15:02:41;11.50;;;6.28;;
10705;SDS011;5404;42.656;23.336;2023-03-23T15:07:39;16.48;;;7.35;;
10705;SDS011;5404;42.656;23.336;2023-03-23T15:10:08;11.65;;;6.93;;
10705;SDS011;5404;42.656;23.336;2023-03-23T15:12:43;18.25;;;7.82;;
10705;SDS011;5404;42.656;23.336;2023-03-23T15:15:16;16.50;;;7.75;;
10705;SDS011;5404;42.656;23.336;2023-03-23T15:17:47;11.55;;;6.95;;
10705;SDS011;5404;42.656;23.336;2023-03-23T15:27:51;13.27;;;7.60;;
10705;SDS011;5404;42.656;23.336;2023-03-23T15:32:51;14.57;;;8.27;;
10705;SDS011;5404;42.656;23.336;2023-03-23T15:35:20;13.52;;;7.25;;
10705;SDS011;5404;42.656;23.336;2023-03-23T15:37:52;15.55;;;8.13;;
10705;SDS011;5404;42.656;23.336;2023-03-23T15:40:24;14.90;;;8.43;;
10705;SDS011;5404;42.656;23.336;2023-03-23T15:43:04;19.75;;;8.50;;
10705;SDS011;5404;42.656;23.336;2023-03-23T15:45:31;17.30;;;8.48;;
10705;SDS011;5404;42.656;23.336;2023-03-23T15:48:03;19.50;;;8.25;;
10705;SDS011;5404;42.656;23.336;2023-03-23T15:50:35;22.58;;;8.88;;
10705;SDS011;5404;42.656;23.336;2023-03-23T15:53:01;15.50;;;7.80;;
10705;SDS011;5404;42.656;23.336;2023-03-23T15:55:43;24.95;;;9.05;;
10705;SDS011;5404;42.656;23.336;2023-03-23T15:58:11;14.68;;;7.88;;
10705;SDS011;5404;42.656;23.336;2023-03-23T16:00:38;14.93;;;7.68;;
10705;SDS011;5404;42.656;23.336;2023-03-23T16:03:05;16.27;;;8.48;;
10705;SDS011;5404;42.656;23.336;2023-03-23T16:05:35;19.38;;;8.20;;
10705;SDS011;5404;42.656;23.336;2023-03-23T16:08:00;12.70;;;7.20;;
10705;SDS011;5404;42.656;23.336;2023-03-23T16:10:28;17.38;;;7.63;;
10705;SDS011;5404;42.656;23.336;2023-03-23T16:12:53;17.80;;;9.38;;
10705;SDS011;5404;42.656;23.336;2023-03-23T16:15:19;13.73;;;6.95;;
10705;SDS011;5404;42.656;23.336;2023-03-23T16:17:45;19.17;;;7.57;;
10705;SDS011;5404;42.656;23.336;2023-03-23T16:22:38;16.65;;;8.65;;
10705;SDS011;5404;42.656;23.336;2023-03-23T16:25:05;16.70;;;7.75;;
10705;SDS011;5404;42.656;23.336;2023-03-23T16:27:32;17.05;;;7.63;;
10705;SDS011;5404;42.656;23.336;2023-03-23T16:29:57;17.25;;;8.30;;
10705;SDS011;5404;42.656;23.336;2023-03-23T16:32:24;14.70;;;8.73;;
10705;SDS011;5404;42.656;23.336;2023-03-23T16:34:50;23.42;;;9.23;;
10705;SDS011;5404;42.656;23.336;2023-03-23T16:37:16;12.48;;;7.75;;
10705;SDS011;5404;42.656;23.336;2023-03-23T16:39:42;27.65;;;9.55;;
10705;SDS011;5404;42.656;23.336;2023-03-23T16:42:07;23.98;;;9.85;;
10705;SDS011;5404;42.656;23.336;2023-03-23T16:44:33;28.10;;;9.43;;
10705;SDS011;5404;42.656;23.336;2023-03-23T16:46:58;31.55;;;10.27;;
10705;SDS011;5404;42.656;23.336;2023-03-23T16:49:23;27.70;;;10.30;;
10705;SDS011;5404;42.656;23.336;2023-03-23T16:51:49;19.42;;;9.15;;
10705;SDS011;5404;42.656;23.336;2023-03-23T16:54:15;17.13;;;9.70;;
10705;SDS011;5404;42.656;23.336;2023-03-23T16:56:40;20.58;;;10.00;;
10705;SDS011;5404;42.656;23.336;2023-03-23T16:59:10;26.00;;;9.88;;